Time;durP1;ratioP1;P1;durP2;ratioP2;P2;SDS_P1;SDS_P2;PMS_P1;PMS_P2;Temp;Humidity;BMP_temperature;BMP_pressure;BME280_temperature;BME280_humidity;BME280_pressure;Samples;Min_cycle;Max_cycle;Signal;HPM_P1;HPM_P2
2023/09/28 00:00:34;;;;;;;45.03;19.92;;;;;;;9.58;68.70;101230.56;4813816;29;20055;-71
2023/09/28 00:02:44;;;;;;;49.20;19.42;;;;;;;9.53;68.16;101239.97;4815531;29;20039;-72
2023/09/28 00:05:12;;;;;;;46.80;18.92;;;;;;;9.54;68.84;101236.53;4815622;29;20050;-72
2023/09/28 00:07:40;;;;;;;33.55;15.05;;;;;;;8.92;68.59;101128.00;4811711;29;20050;-72
2023/09/28 00:10:11;;;;;;;30.25;13.25;;;;;;;9.54;68.74;101228.75;4786470;29;20109;-72
2023/09/28 00:12:45;;;;;;;33.00;14.65;;;;;;;9.49;68.59;101225.16;4828131;29;20099;-73
2023/09/28 00:15:16;;;;;;;40.15;14.80;;;;;;;9.28;68.66;101195.34;4814127;29;20035;-73
2023/09/28 00:17:43;;;;;;;32.90;14.25;;;;;;;8.70;68.37;101101.63;4810815;29;20059;-74
2023/09/28 00:20:17;;;;;;;27.83;13.30;;;;;;;9.54;68.75;101235.63;4812729;29;20063;-74
2023/09/28 00:22:45;;;;;;;27.40;13.35;;;;;;;9.29;68.38;101191.91;4797028;29;20528;-73
2023/09/28 00:25:11;;;;;;;28.02;13.40;;;;;;;9.50;68.61;101235.56;4800954;29;20130;-73
2023/09/28 00:27:39;;;;;;;31.15;13.68;;;;;;;9.48;68.77;101226.91;4813291;29;20051;-72
2023/09/28 00:30:18;;;;;;;36.05;13.18;;;;;;;9.49;68.75;101227.78;4805874;29;20038;-74
2023/09/28 00:32:47;;;;;;;30.55;13.52;;;;;;;9.15;68.65;101172.59;4827161;29;20090;-73
2023/09/28 00:35:14;;;;;;;26.20;13.52;;;;;;;9.43;68.87;101206.88;4812783;29;20065;-73
2023/09/28 00:37:41;;;;;;;25.00;13.23;;;;;;;9.47;69.03;101206.97;4814663;29;20050;-72
2023/09/28 00:40:31;;;;;;;25.20;12.27;;;;;;;9.70;69.00;101239.41;4815196;29;20533;-73
2023/09/28 00:42:56;;;;;;;21.98;12.52;;;;;;;9.64;69.28;101216.78;4813231;29;20145;-73
2023/09/28 00:45:26;;;;;;;21.88;11.82;;;;;;;9.75;69.29;101230.81;4812973;29;20049;-73
2023/09/28 00:48:02;;;;;;;25.88;12.65;;;;;;;9.73;69.40;101239.47;4799710;29;20505;-74
2023/09/28 00:50:32;;;;;;;21.35;11.65;;;;;;;9.78;69.06;101232.63;4811947;29;20073;-72
2023/09/28 00:53:08;;;;;;;25.73;11.75;;;;;;;9.78;69.46;101219.63;4810894;29;20046;-73
2023/09/28 00:55:36;;;;;;;18.25;10.70;;;;;;;9.64;69.60;101188.19;4812558;29;20505;-72
2023/09/28 00:58:09;;;;;;;21.45;11.60;;;;;;;9.87;69.02;101229.31;4794722;29;20046;-74
2023/09/28 01:00:38;;;;;;;20.65;11.88;;;;;;;9.80;69.69;101215.31;4811661;29;20529;-73
2023/09/28 01:03:07;;;;;;;22.50;11.45;;;;;;;9.81;69.42;101222.28;4814505;29;20054;-74
2023/09/28 01:05:39;;;;;;;25.63;11.65;;;;;;;9.62;69.38;101200.28;4795175;29;20046;-72
2023/09/28 01:08:14;;;;;;;23.42;12.10;;;;;;;9.80;69.68;101225.72;4811975;29;20057;-71
2023/09/28 01:10:41;;;;;;;19.38;10.70;;;;;;;9.82;69.54;101236.13;4809065;29;20056;-71
2023/09/28 01:13:12;;;;;;;23.58;11.65;;;;;;;9.71;68.76;101222.97;4799185;29;20523;-71
2023/09/28 01:15:39;;;;;;;20.90;11.38;;;;;;;9.70;69.40;101218.59;4814103;29;20070;-72
2023/09/28 01:18:09;;;;;;;30.48;11.02;;;;;;;9.76;69.50;101223.91;4810261;29;20578;-71
2023/09/28 01:20:39;;;;;;;24.02;12.45;;;;;;;9.68;69.23;101194.31;4811415;29;20542;-71
2023/09/28 01:23:06;;;;;;;22.45;11.15;;;;;;;9.82;69.10;101217.94;4798596;29;20054;-70
2023/09/28 01:25:34;;;;;;;24.48;11.13;;;;;;;9.93;69.78;101229.41;4814851;29;20038;-72
2023/09/28 01:28:00;;;;;;;20.25;12.30;;;;;;;9.74;69.08;101202.22;4796955;29;20486;-70
2023/09/28 01:30:27;;;;;;;23.13;11.55;;;;;;;9.69;69.47;101198.66;4802077;29;20788;-71
2023/09/28 01:32:53;;;;;;;25.65;11.30;;;;;;;9.87;69.40;101227.56;4800859;29;20038;-71
2023/09/28 01:35:20;;;;;;;22.20;11.35;;;;;;;9.89;69.55;101232.81;4817044;29;20149;-71
2023/09/28 01:38:12;;;;;;;20.00;11.23;;;;;;;9.92;69.90;101232.84;4814581;29;20077;-70
2023/09/28 01:40:42;;;;;;;20.58;10.95;;;;;;;9.81;69.90;101209.28;4812513;29;20513;-72
2023/09/28 01:43:11;;;;;;;20.45;11.23;;;;;;;9.74;70.08;101199.63;4797444;29;20106;-71
2023/09/28 01:45:38;;;;;;;21.95;12.02;;;;;;;9.83;69.72;101204.09;4817717;29;20519;-71
2023/09/28 01:48:09;;;;;;;22.83;11.93;;;;;;;9.77;69.71;101191.88;4830062;29;20053;-72
2023/09/28 01:50:36;;;;;;;21.48;11.77;;;;;;;9.97;69.75;101217.31;4813471;29;20414;-71
2023/09/28 01:53:02;;;;;;;19.75;10.32;;;;;;;9.81;69.68;101185.88;4814369;29;20046;-72
2023/09/28 01:55:28;;;;;;;26.92;11.48;;;;;;;10.00;69.84;101201.78;4816150;29;20137;-72
2023/09/28 01:57:54;;;;;;;23.60;10.98;;;;;;;10.01;69.90;101207.00;4814724;29;20055;-71
2023/09/28 02:00:24;;;;;;;19.33;11.07;;;;;;;9.85;69.72;101190.25;4814159;29;20191;-72
2023/09/28 02:02:53;;;;;;;19.88;10.98;;;;;;;10.05;69.65;101221.78;4801159;29;20075;-72
2023/09/28 02:05:21;;;;;;;17.98;10.05;;;;;;;9.89;69.53;101189.47;4802293;29;20517;-71
2023/09/28 02:07:48;;;;;;;17.77;10.48;;;;;;;9.82;69.66;101177.19;4781525;29;21532;-71
2023/09/28 02:10:20;;;;;;;17.85;10.80;;;;;;;10.03;69.68;101212.22;4812671;29;20043;-71
2023/09/28 02:12:50;;;;;;;18.63;10.60;;;;;;;9.93;69.46;101203.41;4815110;29;20137;-72
2023/09/28 02:15:22;;;;;;;17.17;10.30;;;;;;;9.91;69.82;101198.16;4802049;29;20094;-71
2023/09/28 02:17:52;;;;;;;19.48;10.40;;;;;;;9.95;69.49;101201.69;4813682;29;20038;-70
2023/09/28 02:20:26;;;;;;;17.40;10.07;;;;;;;9.53;69.94;101141.22;4812772;29;20103;-71
2023/09/28 02:22:53;;;;;;;20.83;10.77;;;;;;;9.77;69.87;101174.53;4811462;29;20050;-70
2023/09/28 02:25:26;;;;;;;21.27;10.38;;;;;;;10.02;69.40;101221.75;4814072;29;20057;-70
2023/09/28 02:27:55;;;;;;;18.67;11.10;;;;;;;9.86;69.67;101197.22;4813796;29;20456;-71
2023/09/28 02:30:23;;;;;;;27.55;11.80;;;;;;;9.89;69.58;101199.88;4813346;29;20520;-72
2023/09/28 02:32:50;;;;;;;16.35;10.80;;;;;;;10.12;69.95;101227.09;4814692;29;20057;-70
2023/09/28 02:35:17;;;;;;;16.45;10.88;;;;;;;9.79;69.38;101172.84;4811524;29;20062;-71
2023/09/28 02:37:48;;;;;;;22.50;10.90;;;;;;;10.12;69.84;101225.38;4813235;29;20046;-70
2023/09/28 02:40:15;;;;;;;19.38;10.77;;;;;;;10.11;69.23;101221.00;4816354;29;20351;-70
2023/09/28 02:42:48;;;;;;;19.17;10.35;;;;;;;10.08;69.31;101223.56;4771989;29;20058;-71
2023/09/28 02:45:14;;;;;;;24.45;11.07;;;;;;;10.03;69.78;101209.63;4809779;29;20049;-71
2023/09/28 02:47:43;;;;;;;18.20;10.10;;;;;;;9.76;69.21;101172.78;4799031;29;20071;-73
2023/09/28 02:50:11;;;;;;;17.40;10.30;;;;;;;10.07;69.80;101224.41;4797889;29;20042;-73
2023/09/28 02:52:39;;;;;;;18.73;10.07;;;;;;;9.69;69.79;101165.75;4816159;29;20054;-72
2023/09/28 02:55:07;;;;;;;17.42;10.27;;;;;;;9.91;70.11;101192.97;4816524;29;20046;-72
2023/09/28 02:57:38;;;;;;;16.33;9.90;;;;;;;10.05;69.75;101232.19;4813420;29;20047;-72
2023/09/28 03:03:03;;;;;;;19.10;10.40;;;;;;;9.89;69.68;101206.81;4818197;29;20046;-70
2023/09/28 03:05:29;;;;;;;19.95;10.38;;;;;;;9.90;69.85;101205.97;4813315;29;20149;-72
2023/09/28 03:07:55;;;;;;;20.70;11.27;;;;;;;10.12;69.91;101234.91;4815264;29;20383;-72
2023/09/28 03:10:22;;;;;;;15.32;10.18;;;;;;;10.10;69.56;101233.16;4812241;29;20042;-71
2023/09/28 03:12:51;;;;;;;18.42;9.93;;;;;;;9.99;69.73;101228.63;4812353;29;20061;-71
2023/09/28 03:15:18;;;;;;;18.05;11.23;;;;;;;10.02;69.29;101226.94;4815453;29;20053;-70
2023/09/28 03:17:48;;;;;;;18.98;9.82;;;;;;;9.71;70.03;101168.38;4812698;29;20046;-72
2023/09/28 03:20:15;;;;;;;15.95;10.25;;;;;;;10.07;70.03;101227.00;4829647;29;20093;-70
2023/09/28 03:22:43;;;;;;;16.10;10.10;;;;;;;10.06;69.45;101223.53;4813628;29;20466;-70
2023/09/28 03:25:14;;;;;;;15.60;10.43;;;;;;;10.08;69.88;101215.75;4797770;29;20050;-73
2023/09/28 03:27:42;;;;;;;19.88;11.07;;;;;;;10.01;70.05;101209.59;4826044;29;20053;-72
2023/09/28 03:30:11;;;;;;;22.05;10.60;;;;;;;9.93;69.41;101195.59;4799460;29;20079;-71
2023/09/28 03:32:38;;;;;;;16.48;9.95;;;;;;;10.14;69.95;101230.59;4781187;29;20055;-72
2023/09/28 03:35:07;;;;;;;18.25;10.57;;;;;;;10.14;69.96;101222.81;4815116;29;20587;-70
2023/09/28 03:37:34;;;;;;;20.40;10.00;;;;;;;10.22;69.88;101221.19;4812939;29;20050;-72
2023/09/28 03:40:00;;;;;;;18.30;9.80;;;;;;;10.16;69.43;101203.75;4800188;29;20036;-72
2023/09/28 03:42:29;;;;;;;30.33;11.13;;;;;;;10.36;69.35;101224.00;4780943;29;20054;-70
2023/09/28 03:44:55;;;;;;;24.27;11.13;;;;;;;10.39;69.18;101227.53;4812591;29;20069;-73
2023/09/28 03:47:21;;;;;;;23.45;10.65;;;;;;;10.23;69.61;101189.09;4826879;29;20060;-72
2023/09/28 03:49:47;;;;;;;20.02;10.32;;;;;;;10.42;68.83;101213.72;4814901;29;20469;-71
2023/09/28 03:52:14;;;;;;;16.27;9.93;;;;;;;10.64;69.54;101237.44;4811236;29;20167;-72
2023/09/28 03:54:40;;;;;;;15.65;10.43;;;;;;;10.59;69.27;101210.47;4812264;29;20054;-72
2023/09/28 03:57:07;;;;;;;18.77;9.77;;;;;;;10.68;69.36;101193.22;4815225;29;20350;-71
2023/09/28 03:59:33;;;;;;;18.85;10.20;;;;;;;10.77;68.88;101191.63;4813266;29;20044;-73
2023/09/28 04:01:59;;;;;;;16.10;10.07;;;;;;;11.11;68.87;101226.75;4815278;29;20043;-71
2023/09/28 04:04:25;;;;;;;18.38;10.13;;;;;;;10.91;68.64;101160.53;4813357;29;20038;-68
2023/09/28 04:06:51;;;;;;;16.00;10.05;;;;;;;11.09;68.26;101175.47;4812123;29;20511;-70
2023/09/28 04:09:17;;;;;;;14.05;8.48;;;;;;;11.38;68.49;101208.78;4814212;29;20058;-71
2023/09/28 04:11:44;;;;;;;15.68;8.35;;;;;;;11.60;68.26;101223.78;4811802;29;20107;-74
2023/09/28 04:14:10;;;;;;;18.60;8.48;;;;;;;11.51;68.33;101165.47;4795156;29;20046;-71
2023/09/28 04:16:37;;;;;;;17.58;8.10;;;;;;;11.79;67.78;101169.19;4812507;29;20070;-70
2023/09/28 04:19:03;;;;;;;12.27;7.30;;;;;;;12.44;68.05;101224.47;4812374;29;20046;-70
2023/09/28 04:21:31;;;;;;;12.35;7.82;;;;;;;12.55;67.06;101201.03;4794168;29;20115;-71
2023/09/28 04:23:58;;;;;;;13.57;7.50;;;;;;;12.81;67.05;101190.69;4811798;29;20476;-71
2023/09/28 04:26:24;;;;;;;12.85;7.10;;;;;;;13.13;66.46;101212.56;4795912;29;20615;-73
2023/09/28 04:28:51;;;;;;;17.90;8.85;;;;;;;13.04;65.86;101157.69;4813218;29;20042;-72
2023/09/28 04:31:20;;;;;;;16.05;8.20;;;;;;;13.69;65.60;101225.81;4808302;29;20065;-72
2023/09/28 04:33:46;;;;;;;15.85;7.75;;;;;;;13.96;65.05;101213.59;4798637;29;20455;-74
2023/09/28 04:36:12;;;;;;;13.85;7.25;;;;;;;14.98;65.18;101223.00;4814505;29;20055;-75
2023/09/28 04:38:40;;;;;;;13.20;8.55;;;;;;;16.16;63.92;101220.47;4813459;29;20049;-72
2023/09/28 04:41:06;;;;;;;14.80;7.55;;;;;;;17.07;62.61;101186.16;4811573;29;20074;-72
2023/09/28 04:43:32;;;;;;;10.63;6.82;;;;;;;18.12;60.84;101209.97;4812099;29;20076;-72
2023/09/28 04:46:00;;;;;;;12.25;6.53;;;;;;;18.99;59.13;101195.13;4796385;29;20519;-72
2023/09/28 04:48:26;;;;;;;14.32;7.35;;;;;;;19.71;56.77;101188.16;4814513;29;20074;-73
2023/09/28 04:50:52;;;;;;;12.30;6.53;;;;;;;20.64;54.57;101200.69;4810217;29;20481;-74
2023/09/28 04:53:21;;;;;;;10.93;6.55;;;;;;;21.30;52.39;101183.78;4799280;29;20141;-72
2023/09/28 04:55:47;;;;;;;9.30;6.18;;;;;;;21.95;50.62;101186.97;4817020;29;20054;-71
2023/09/28 04:58:19;;;;;;;9.45;6.28;;;;;;;22.58;47.97;101183.00;4813470;29;20385;-72
2023/09/28 05:00:45;;;;;;;;;;;;;;;23.27;46.77;101190.13;4815953;29;20395;-72
2023/09/28 05:03:11;;;;;;;10.90;6.43;;;;;;;23.64;45.44;101175.31;4817380;29;19928;-75
2023/09/28 05:05:38;;;;;;;8.63;6.55;;;;;;;24.10;43.86;101179.63;4787106;29;20072;-74
2023/09/28 05:08:04;;;;;;;11.68;6.53;;;;;;;24.08;42.09;101123.84;4817513;29;20050;-76
2023/09/28 05:10:33;;;;;;;11.73;7.15;;;;;;;24.88;40.83;101167.22;4811390;29;20146;-71
2023/09/28 05:13:00;;;;;;;10.27;6.25;;;;;;;25.50;40.04;101182.91;4789260;29;20538;-72
2023/09/28 05:15:26;;;;;;;11.65;7.18;;;;;;;25.90;38.56;101148.03;4799708;29;20148;-73
2023/09/28 05:17:54;;;;;;;13.57;7.13;;;;;;;26.29;37.56;101103.34;4808941;29;20050;-73
2023/09/28 05:20:22;;;;;;;13.63;6.88;;;;;;;27.14;36.34;101156.53;4815358;29;20541;-73
2023/09/28 05:22:53;;;;;;;13.88;7.03;;;;;;;27.70;35.17;101145.28;4813955;29;20051;-73
2023/09/28 05:25:20;;;;;;;11.05;6.35;;;;;;;28.13;33.83;101117.75;4828488;29;20046;-73
2023/09/28 05:27:47;;;;;;;12.25;6.47;;;;;;;28.96;33.01;101151.81;4813545;29;20564;-74
2023/09/28 05:30:13;;;;;;;10.75;6.18;;;;;;;29.33;32.29;101130.59;4813630;29;20110;-74
2023/09/28 05:32:39;;;;;;;13.07;5.90;;;;;;;29.80;30.93;101155.16;4813822;29;20051;-73
2023/09/28 05:35:06;;;;;;;11.88;6.20;;;;;;;30.03;30.02;101145.53;4818019;29;20054;-74
2023/09/28 05:37:37;;;;;;;8.93;6.25;;;;;;;30.64;30.01;101147.50;4817993;29;20054;-73
2023/09/28 05:40:04;;;;;;;9.65;6.43;;;;;;;30.90;28.97;101095.50;4817575;29;20034;-74
2023/09/28 05:42:34;;;;;;;11.13;6.20;;;;;;;31.59;28.07;101120.84;4829932;29;20038;-72
2023/09/28 05:45:00;;;;;;;10.35;6.68;;;;;;;32.09;27.67;101134.91;4809555;29;20050;-78
2023/09/28 05:47:33;;;;;;;9.20;6.10;;;;;;;32.59;26.74;101125.56;4788597;29;20039;-75
2023/09/28 05:49:59;;;;;;;13.60;6.40;;;;;;;33.20;26.10;101145.75;4816654;29;20050;-76
2023/09/28 05:52:25;;;;;;;9.50;5.78;;;;;;;33.25;25.26;101115.72;4814144;29;20046;-75
2023/09/28 05:54:53;;;;;;;9.00;5.80;;;;;;;33.35;24.63;101130.97;4812705;29;20126;-79
2023/09/28 05:57:26;;;;;;;12.68;5.70;;;;;;;32.29;25.35;101141.38;4804560;29;20038;-78
2023/09/28 05:59:52;;;;;;;9.15;6.22;;;;;;;31.76;24.84;101133.88;4801801;29;20113;-81
2023/09/28 06:02:21;;;;;;;9.93;6.43;;;;;;;31.79;24.97;101063.69;4818244;29;20581;-78
2023/09/28 06:04:50;;;;;;;8.73;5.93;;;;;;;32.54;24.54;101158.25;4816342;29;20535;-81
2023/09/28 06:07:16;;;;;;;11.88;6.35;;;;;;;32.33;24.69;101119.63;4820499;29;20418;-81
2023/09/28 06:09:42;;;;;;;10.10;6.35;;;;;;;32.58;24.21;101064.59;4805261;29;20047;-80
2023/09/28 06:12:11;;;;;;;8.98;6.15;;;;;;;33.52;23.48;101144.03;4819463;29;20046;-80
2023/09/28 06:14:38;;;;;;;8.88;6.38;;;;;;;33.69;22.92;101140.75;4811596;29;20046;-81
2023/09/28 06:17:04;;;;;;;9.65;6.70;;;;;;;33.89;22.46;101147.09;4820426;29;20042;-80
2023/09/28 06:19:30;;;;;;;10.07;7.30;;;;;;;33.79;22.26;101147.03;4818991;29;20050;-78
2023/09/28 06:21:56;;;;;;;11.00;6.95;;;;;;;33.95;22.43;101126.84;4815782;29;20480;-81
2023/09/28 06:24:25;;;;;;;9.88;6.82;;;;;;;33.72;22.00;101058.66;4833593;29;20050;-81
2023/09/28 06:26:54;;;;;;;11.15;7.05;;;;;;;34.42;21.80;101106.56;4818743;29;20043;-87
2023/09/28 06:29:21;;;;;;;8.85;6.70;;;;;;;35.34;21.29;101121.63;4826295;29;20038;-84
2023/09/28 06:31:47;;;;;;;15.23;6.63;;;;;;;35.91;21.12;101080.16;4820995;29;20053;-81
2023/09/28 06:34:13;;;;;;;10.45;6.60;;;;;;;36.46;20.17;101146.25;4804071;29;20055;-77
2023/09/28 06:36:41;;;;;;;11.02;6.50;;;;;;;36.81;20.04;101147.31;4808640;29;20150;-79
2023/09/28 06:39:10;;;;;;;10.50;5.82;;;;;;;36.96;19.49;101098.84;4802935;29;20050;-78
2023/09/28 06:41:37;;;;;;;11.82;6.20;;;;;;;37.27;19.26;101149.13;4803553;29;20600;-77
2023/09/28 06:44:03;;;;;;;8.20;6.32;;;;;;;37.08;18.92;101110.31;4818405;29;20046;-78
2023/09/28 06:46:29;;;;;;;9.25;6.20;;;;;;;37.57;18.98;101125.28;4816866;29;20053;-77
2023/09/28 06:48:56;;;;;;;6.47;5.70;;;;;;;38.28;17.78;101132.31;4803137;29;20497;-80
2023/09/28 06:51:22;;;;;;;7.25;5.55;;;;;;;38.35;18.42;101118.91;4814353;29;20142;-79
2023/09/28 06:53:48;;;;;;;9.88;5.75;;;;;;;38.96;17.33;101105.13;4816983;29;20434;-77
2023/09/28 06:56:14;;;;;;;11.18;5.88;;;;;;;39.29;17.10;101105.13;4811414;29;20045;-80
2023/09/28 06:58:40;;;;;;;8.20;5.80;;;;;;;39.17;16.65;101065.69;4818591;29;20050;-78
2023/09/28 07:01:09;;;;;;;7.90;6.00;;;;;;;39.37;16.80;101038.97;4799190;29;20117;-78
2023/09/28 07:03:35;;;;;;;7.13;5.35;;;;;;;40.34;15.99;101105.19;4815361;29;20541;-77
2023/09/28 07:06:01;;;;;;;6.65;4.93;;;;;;;40.22;15.83;101072.06;4813575;29;20057;-78
2023/09/28 07:08:27;;;;;;;11.25;5.38;;;;;;;40.12;15.74;100997.84;4815340;29;20137;-78
2023/09/28 07:10:53;;;;;;;11.00;5.47;;;;;;;40.96;15.67;101106.16;4801112;29;20110;-80
2023/09/28 07:13:19;;;;;;;10.43;6.00;;;;;;;41.27;15.03;101110.69;4816340;29;20050;-78
2023/09/28 07:15:47;;;;;;;11.68;6.00;;;;;;;40.86;15.20;101031.94;4807034;29;20066;-77
2023/09/28 07:18:13;;;;;;;10.05;5.63;;;;;;;41.02;15.21;101048.13;4785978;29;20544;-77
2023/09/28 07:20:41;;;;;;;8.88;5.45;;;;;;;41.25;15.06;101089.06;4816059;29;20047;-82
2023/09/28 07:23:16;;;;;;;8.05;5.30;;;;;;;40.46;15.15;101032.03;4818288;29;20082;-78
2023/09/28 07:25:42;;;;;;;10.87;5.40;;;;;;;40.85;15.67;101080.16;4805255;29;20053;-78
2023/09/28 07:28:08;;;;;;;8.93;5.15;;;;;;;41.12;15.20;101061.53;4803755;29;20054;-80
2023/09/28 07:30:40;;;;;;;9.77;5.00;;;;;;;41.59;15.22;101070.47;4788622;29;20514;-80
2023/09/28 07:33:19;;;;;;;6.75;4.40;;;;;;;41.68;14.60;101068.50;4821514;29;20460;-78
2023/09/28 07:35:45;;;;;;;10.18;4.65;;;;;;;41.98;14.72;101063.88;4804596;29;20063;-79
2023/09/28 07:38:14;;;;;;;8.68;4.80;;;;;;;42.37;14.05;101050.00;4819208;29;20046;-77
2023/09/28 07:40:46;;;;;;;8.60;4.53;;;;;;;42.33;14.27;101079.63;4819849;29;20132;-77
2023/09/28 07:43:12;;;;;;;10.63;5.00;;;;;;;42.85;14.34;101076.78;4816812;29;20059;-80
2023/09/28 07:45:41;;;;;;;7.28;5.53;;;;;;;42.85;13.52;101039.34;4816240;29;20057;-77
2023/09/28 07:48:07;;;;;;;5.15;4.65;;;;;;;43.69;13.50;101049.63;4803670;29;20046;-77
2023/09/28 07:50:33;;;;;;;7.15;4.30;;;;;;;44.21;13.11;101063.75;4816676;29;20111;-77
2023/09/28 07:52:59;;;;;;;6.07;3.50;;;;;;;44.22;12.42;101062.72;4786465;29;20042;-80
2023/09/28 07:55:28;;;;;;;6.15;3.90;;;;;;;43.98;13.02;101077.75;4814837;29;20057;-79
2023/09/28 07:57:54;;;;;;;7.90;3.60;;;;;;;43.70;12.97;101065.84;4794480;29;20056;-78
2023/09/28 08:00:21;;;;;;;9.30;3.97;;;;;;;43.46;12.93;101035.16;4812867;29;20066;-75
2023/09/28 08:02:55;;;;;;;6.63;3.63;;;;;;;44.29;12.48;101066.28;4815794;29;20046;-78
2023/09/28 08:05:22;;;;;;;8.80;3.35;;;;;;;44.20;12.61;101071.13;4817142;29;20050;-82
2023/09/28 08:07:50;;;;;;;7.82;3.72;;;;;;;43.33;12.60;100966.66;4818209;29;20651;-79
2023/09/28 08:10:28;;;;;;;7.55;3.60;;;;;;;44.11;12.62;101066.03;4812996;29;20045;-77
2023/09/28 08:13:02;;;;;;;7.43;3.78;;;;;;;43.93;12.54;101020.84;4818161;29;20151;-81
2023/09/28 08:15:32;;;;;;;8.25;3.90;;;;;;;44.20;12.23;101064.81;4815622;29;20133;-77
2023/09/28 08:18:02;;;;;;;5.35;3.60;;;;;;;44.00;12.32;101038.16;4815372;29;20054;-77
2023/09/28 08:20:33;;;;;;;7.68;3.80;;;;;;;44.99;11.95;101056.91;4793974;29;20081;-78
2023/09/28 08:23:09;;;;;;;8.85;3.65;;;;;;;45.47;11.38;101032.94;4794318;29;20050;-77
2023/09/28 08:25:36;;;;;;;5.22;3.40;;;;;;;45.25;11.98;101042.31;4782176;29;20047;-80
2023/09/28 08:28:02;;;;;;;6.68;3.53;;;;;;;45.04;12.06;101046.13;4812163;29;20070;-80
2023/09/28 08:30:31;;;;;;;6.07;3.63;;;;;;;44.80;11.81;101012.75;4811694;29;20076;-78
2023/09/28 08:33:00;;;;;;;7.38;3.53;;;;;;;44.49;11.70;101043.56;4799475;29;20501;-78
2023/09/28 08:35:29;;;;;;;4.55;3.33;;;;;;;44.02;12.37;101029.72;4802731;29;20054;-78
2023/09/28 08:37:56;;;;;;;4.73;3.43;;;;;;;44.02;12.17;101005.06;4802231;29;20129;-76
2023/09/28 08:40:23;;;;;;;4.63;3.53;;;;;;;44.24;12.27;101020.31;4811658;29;20047;-78
2023/09/28 08:42:54;;;;;;;;;;;;;;;44.40;12.14;101023.69;4798193;29;20563;-76
2023/09/28 08:45:22;;;;;;;7.53;3.70;;;;;;;44.15;12.51;101001.53;4795528;29;19927;-78
2023/09/28 08:47:50;;;;;;;6.05;3.72;;;;;;;43.92;12.10;101003.53;4803068;29;20051;-78
2023/09/28 08:50:33;;;;;;;14.50;4.15;;;;;;;43.85;12.28;101007.31;4811469;29;20127;-81
2023/09/28 08:53:03;;;;;;;7.50;3.58;;;;;;;44.19;12.32;101019.25;4799689;29;20463;-78
2023/09/28 08:55:49;;;;;;;8.35;3.90;;;;;;;44.11;11.92;100959.13;4798102;29;20042;-77
2023/09/28 08:58:17;;;;;;;6.03;3.40;;;;;;;44.52;11.79;101010.25;4801561;29;20050;-78
2023/09/28 09:00:43;;;;;;;8.15;4.03;;;;;;;43.73;12.01;100996.97;4798683;29;20057;-80
2023/09/28 09:03:09;;;;;;;6.00;3.28;;;;;;;43.44;12.43;100965.22;4759748;29;20110;-79
2023/09/28 09:05:41;;;;;;;6.35;3.22;;;;;;;42.82;12.26;100933.06;4803242;29;20054;-78
2023/09/28 09:08:09;;;;;;;5.90;3.40;;;;;;;42.96;12.44;101005.13;4803019;29;20063;-78
2023/09/28 09:10:36;;;;;;;6.65;3.20;;;;;;;42.38;12.49;100928.69;4775155;29;20572;-78
2023/09/28 09:13:02;;;;;;;4.95;3.20;;;;;;;42.64;12.62;100925.31;4801119;29;20110;-78
2023/09/28 09:15:29;;;;;;;5.03;3.13;;;;;;;42.94;12.31;100932.47;4797953;29;20521;-76
2023/09/28 09:18:00;;;;;;;10.00;3.30;;;;;;;43.38;11.97;100987.94;4798086;29;20226;-82
2023/09/28 09:20:28;;;;;;;5.00;3.17;;;;;;;43.64;12.39;100988.09;4783914;29;20054;-78
2023/09/28 09:22:55;;;;;;;4.53;3.05;;;;;;;43.72;11.82;100923.19;4783977;29;20421;-77
2023/09/28 09:25:53;;;;;;;7.22;3.10;;;;;;;43.81;11.76;100927.44;4800431;29;20208;-78
2023/09/28 09:28:32;;;;;;;5.05;3.08;;;;;;;43.89;12.05;100975.72;4815466;29;20051;-77
2023/09/28 09:31:00;;;;;;;5.30;3.03;;;;;;;43.68;12.10;100958.38;4796110;29;20108;-75
2023/09/28 09:33:29;;;;;;;6.13;3.40;;;;;;;43.59;12.06;100978.75;4794436;29;20578;-77
2023/09/28 09:35:58;;;;;;;4.70;3.17;;;;;;;43.32;12.07;100967.69;4796670;29;20093;-75
2023/09/28 09:38:30;;;;;;;6.50;3.00;;;;;;;42.84;12.50;100971.16;4797518;29;20087;-74
2023/09/28 09:41:08;;;;;;;5.88;3.13;;;;;;;42.79;12.32;100941.63;4796791;29;20073;-73
2023/09/28 09:43:40;;;;;;;8.18;3.38;;;;;;;43.08;12.68;100950.69;4796253;29;20518;-74
2023/09/28 09:46:09;;;;;;;5.78;3.00;;;;;;;43.03;12.81;100958.66;4798549;29;20046;-76
2023/09/28 09:48:43;;;;;;;8.60;3.67;;;;;;;42.64;12.53;100949.09;4794778;29;20422;-74
2023/09/28 09:51:17;;;;;;;5.95;2.92;;;;;;;42.59;12.31;100949.72;4798562;29;20058;-73
2023/09/28 09:53:45;;;;;;;8.05;3.50;;;;;;;41.78;12.79;100896.13;4811678;29;20138;-76
2023/09/28 09:56:12;;;;;;;5.18;3.15;;;;;;;42.29;12.67;100956.13;4788648;29;20142;-75
2023/09/28 09:58:48;;;;;;;6.38;3.33;;;;;;;42.85;12.72;100948.22;4779622;29;20061;-74
2023/09/28 10:01:16;;;;;;;6.82;3.08;;;;;;;42.46;12.62;100917.63;4793169;29;20118;-74
2023/09/28 10:03:47;;;;;;;6.13;3.58;;;;;;;40.48;13.27;100932.72;4794438;29;20046;-75
2023/09/28 10:06:16;;;;;;;11.90;3.30;;;;;;;38.69;14.65;100926.84;4790457;29;20070;-74
2023/09/28 10:08:45;;;;;;;7.55;3.30;;;;;;;37.12;15.55;100927.28;4777515;29;20092;-74
2023/09/28 10:11:12;;;;;;;6.78;3.35;;;;;;;34.99;16.84;100855.41;4795629;29;20579;-71
2023/09/28 10:13:39;;;;;;;8.38;3.00;;;;;;;34.41;18.03;100940.94;4780636;29;20043;-74
2023/09/28 10:16:08;;;;;;;6.15;3.20;;;;;;;33.59;18.85;100934.81;4779341;29;20514;-75
2023/09/28 10:18:43;;;;;;;6.78;3.40;;;;;;;32.82;19.63;100939.59;4789273;29;20051;-74
2023/09/28 10:21:11;;;;;;;8.23;3.40;;;;;;;31.94;20.25;100939.66;4791654;29;20164;-75
2023/09/28 10:23:37;;;;;;;9.73;3.20;;;;;;;31.15;21.14;100903.75;4790072;29;20437;-76
2023/09/28 10:26:12;;;;;;;6.28;3.35;;;;;;;30.33;21.51;100867.88;4792739;29;20054;-75
2023/09/28 10:29:05;;;;;;;8.07;3.15;;;;;;;29.74;22.44;100882.06;4790470;29;20137;-74
2023/09/28 10:31:42;;;;;;;6.20;3.25;;;;;;;29.26;22.93;100913.09;4791243;29;20050;-73
2023/09/28 10:34:09;;;;;;;8.57;3.22;;;;;;;28.90;23.54;100909.38;4777196;29;20047;-74
2023/09/28 10:36:39;;;;;;;11.02;3.53;;;;;;;28.16;23.75;100852.75;4789929;29;20051;-74
2023/09/28 10:39:17;;;;;;;3.83;3.10;;;;;;;28.13;24.24;100920.69;4776147;29;20542;-76
2023/09/28 10:41:51;;;;;;;6.35;3.60;;;;;;;27.89;25.32;100963.19;4790360;29;20039;-74
2023/09/28 10:44:21;;;;;;;5.75;3.17;;;;;;;27.40;25.84;100935.06;4789302;29;20432;-74
2023/09/28 10:46:50;;;;;;;7.80;3.35;;;;;;;26.81;26.40;100893.22;4795297;29;20683;-74
2023/09/28 10:49:29;;;;;;;5.13;3.08;;;;;;;26.09;27.04;100811.94;4790748;29;20074;-75
2023/09/28 10:51:57;;;;;;;7.47;3.13;;;;;;;26.35;27.05;100873.63;4790856;29;20108;-73
2023/09/28 10:54:31;;;;;;;8.43;3.20;;;;;;;26.40;27.73;100908.00;4791668;29;20053;-74
2023/09/28 10:56:57;;;;;;;6.00;2.90;;;;;;;26.20;27.84;100918.03;4791283;29;20039;-74
2023/09/28 10:59:25;;;;;;;4.63;2.80;;;;;;;25.85;28.56;100884.38;4779143;29;20074;-73
2023/09/28 11:01:54;;;;;;;6.53;3.10;;;;;;;25.71;28.90;100882.47;4805199;29;20611;-74
2023/09/28 11:04:21;;;;;;;5.05;3.20;;;;;;;25.58;28.67;100896.56;4788616;29;20043;-73
2023/09/28 11:06:51;;;;;;;6.97;3.42;;;;;;;25.54;29.21;100923.38;4760949;29;20580;-72
2023/09/28 11:09:19;;;;;;;7.47;3.20;;;;;;;25.37;29.65;100920.72;4790523;29;20131;-74
2023/09/28 11:11:45;;;;;;;7.93;3.20;;;;;;;25.01;29.71;100879.16;4775369;29;20042;-73
2023/09/28 11:14:14;;;;;;;7.85;3.47;;;;;;;24.37;29.98;100821.16;4790965;29;20046;-75
2023/09/28 11:16:49;;;;;;;6.32;3.25;;;;;;;24.35;30.21;100839.84;4774181;29;20043;-74
2023/09/28 11:19:15;;;;;;;3.72;2.90;;;;;;;24.57;30.47;100860.03;4790432;29;20051;-74
2023/09/28 11:21:44;;;;;;;3.88;2.70;;;;;;;24.78;30.45;100899.84;4790746;29;20046;-74
2023/09/28 11:24:12;;;;;;;5.22;3.00;;;;;;;24.30;30.41;100841.00;4780059;29;20080;-75
2023/09/28 11:26:42;;;;;;;9.05;3.38;;;;;;;24.52;30.52;100904.63;4802234;29;20138;-75
2023/09/28 11:29:11;;;;;;;7.83;2.83;;;;;;;24.19;31.18;100874.31;4776810;29;20074;-73